sensor_id;sensor_type;location;lat;lon;timestamp;P1;durP1;ratioP1;P2;durP2;ratioP2
25359;SDS011;13311;51.386;0.016;2024-02-14T00:03:52;37.40;;;9.80;;
25359;SDS011;13311;51.386;0.016;2024-02-14T00:08:52;30.48;;;8.25;;
25359;SDS011;13311;51.386;0.016;2024-02-14T00:13:53;45.65;;;8.88;;
25359;SDS011;13311;51.386;0.016;2024-02-14T00:18:56;30.25;;;6.38;;
25359;SDS011;13311;51.386;0.016;2024-02-14T00:23:57;26.70;;;6.80;;
25359;SDS011;13311;51.386;0.016;2024-02-14T00:28:58;23.58;;;5.05;;
25359;SDS011;13311;51.386;0.016;2024-02-14T00:33:59;18.15;;;4.85;;
25359;SDS011;13311;51.386;0.016;2024-02-14T00:38:59;36.72;;;7.32;;
25359;SDS011;13311;51.386;0.016;2024-02-14T00:44:01;27.98;;;6.60;;
25359;SDS011;13311;51.386;0.016;2024-02-14T00:49:03;26.85;;;5.95;;
25359;SDS011;13311;51.386;0.016;2024-02-14T00:54:04;25.23;;;4.93;;
25359;SDS011;13311;51.386;0.016;2024-02-14T00:59:04;18.13;;;4.75;;
25359;SDS011;13311;51.386;0.016;2024-02-14T01:04:06;14.77;;;3.85;;
25359;SDS011;13311;51.386;0.016;2024-02-14T01:09:07;15.77;;;4.00;;
25359;SDS011;13311;51.386;0.016;2024-02-14T01:14:08;18.25;;;3.45;;
25359;SDS011;13311;51.386;0.016;2024-02-14T01:19:09;13.43;;;2.78;;
25359;SDS011;13311;51.386;0.016;2024-02-14T01:24:11;13.77;;;3.15;;
25359;SDS011;13311;51.386;0.016;2024-02-14T01:29:12;10.15;;;3.05;;
25359;SDS011;13311;51.386;0.016;2024-02-14T01:34:13;9.73;;;2.50;;
25359;SDS011;13311;51.386;0.016;2024-02-14T01:39:14;6.28;;;2.28;;
25359;SDS011;13311;51.386;0.016;2024-02-14T01:44:15;14.57;;;2.78;;
25359;SDS011;13311;51.386;0.016;2024-02-14T01:49:16;14.85;;;2.58;;
25359;SDS011;13311;51.386;0.016;2024-02-14T01:54:17;13.40;;;3.30;;
25359;SDS011;13311;51.386;0.016;2024-02-14T01:59:19;18.00;;;3.33;;
25359;SDS011;13311;51.386;0.016;2024-02-14T02:04:20;12.38;;;3.35;;
25359;SDS011;13311;51.386;0.016;2024-02-14T02:09:22;17.25;;;3.25;;
25359;SDS011;13311;51.386;0.016;2024-02-14T02:14:23;21.25;;;4.97;;
25359;SDS011;13311;51.386;0.016;2024-02-14T02:19:23;17.20;;;4.68;;
25359;SDS011;13311;51.386;0.016;2024-02-14T02:24:24;9.82;;;2.70;;
25359;SDS011;13311;51.386;0.016;2024-02-14T02:29:25;23.30;;;2.83;;
25359;SDS011;13311;51.386;0.016;2024-02-14T02:34:26;15.15;;;3.20;;
25359;SDS011;13311;51.386;0.016;2024-02-14T02:39:27;8.40;;;1.95;;
25359;SDS011;13311;51.386;0.016;2024-02-14T02:44:27;7.30;;;2.60;;
25359;SDS011;13311;51.386;0.016;2024-02-14T02:49:29;10.65;;;2.33;;
25359;SDS011;13311;51.386;0.016;2024-02-14T02:54:29;6.43;;;1.58;;
25359;SDS011;13311;51.386;0.016;2024-02-14T02:59:30;6.25;;;2.22;;
25359;SDS011;13311;51.386;0.016;2024-02-14T03:04:32;2.85;;;1.50;;
25359;SDS011;13311;51.386;0.016;2024-02-14T03:09:36;3.97;;;1.40;;
25359;SDS011;13311;51.386;0.016;2024-02-14T03:14:37;6.03;;;1.48;;
25359;SDS011;13311;51.386;0.016;2024-02-14T03:19:39;3.88;;;1.20;;
25359;SDS011;13311;51.386;0.016;2024-02-14T03:24:40;3.60;;;1.05;;
25359;SDS011;13311;51.386;0.016;2024-02-14T03:29:44;3.25;;;1.00;;
25359;SDS011;13311;51.386;0.016;2024-02-14T03:34:45;6.18;;;1.50;;
25359;SDS011;13311;51.386;0.016;2024-02-14T03:39:45;4.40;;;0.85;;
25359;SDS011;13311;51.386;0.016;2024-02-14T03:44:46;4.68;;;1.45;;
25359;SDS011;13311;51.386;0.016;2024-02-14T03:49:47;1.80;;;1.13;;
25359;SDS011;13311;51.386;0.016;2024-02-14T03:54:48;3.00;;;1.20;;
25359;SDS011;13311;51.386;0.016;2024-02-14T03:59:50;2.72;;;0.80;;
25359;SDS011;13311;51.386;0.016;2024-02-14T04:04:50;6.32;;;1.13;;
25359;SDS011;13311;51.386;0.016;2024-02-14T04:09:51;3.15;;;1.15;;
25359;SDS011;13311;51.386;0.016;2024-02-14T04:14:52;2.22;;;0.73;;
25359;SDS011;13311;51.386;0.016;2024-02-14T04:19:53;2.72;;;1.15;;
25359;SDS011;13311;51.386;0.016;2024-02-14T04:24:53;4.50;;;1.10;;
25359;SDS011;13311;51.386;0.016;2024-02-14T04:29:54;2.10;;;1.20;;
25359;SDS011;13311;51.386;0.016;2024-02-14T04:34:55;6.20;;;1.30;;
25359;SDS011;13311;51.386;0.016;2024-02-14T04:39:56;2.00;;;1.20;;
25359;SDS011;13311;51.386;0.016;2024-02-14T04:44:57;1.80;;;0.80;;
25359;SDS011;13311;51.386;0.016;2024-02-14T04:49:57;1.88;;;0.85;;
25359;SDS011;13311;51.386;0.016;2024-02-14T04:54:59;2.92;;;0.70;;
25359;SDS011;13311;51.386;0.016;2024-02-14T05:00:00;2.67;;;0.80;;
25359;SDS011;13311;51.386;0.016;2024-02-14T05:05:04;2.80;;;0.88;;
25359;SDS011;13311;51.386;0.016;2024-02-14T05:10:06;4.00;;;0.82;;
25359;SDS011;13311;51.386;0.016;2024-02-14T05:15:08;1.65;;;0.82;;
25359;SDS011;13311;51.386;0.016;2024-02-14T05:20:09;1.10;;;0.77;;
25359;SDS011;13311;51.386;0.016;2024-02-14T05:25:10;1.77;;;0.57;;
25359;SDS011;13311;51.386;0.016;2024-02-14T05:30:11;1.50;;;0.30;;
25359;SDS011;13311;51.386;0.016;2024-02-14T05:35:12;2.60;;;0.88;;
25359;SDS011;13311;51.386;0.016;2024-02-14T05:40:13;1.95;;;0.70;;
25359;SDS011;13311;51.386;0.016;2024-02-14T05:45:13;3.63;;;1.15;;
25359;SDS011;13311;51.386;0.016;2024-02-14T05:50:14;5.45;;;1.27;;
25359;SDS011;13311;51.386;0.016;2024-02-14T05:55:15;3.58;;;1.00;;
25359;SDS011;13311;51.386;0.016;2024-02-14T06:00:16;4.32;;;1.30;;
25359;SDS011;13311;51.386;0.016;2024-02-14T06:05:18;3.20;;;1.10;;
25359;SDS011;13311;51.386;0.016;2024-02-14T06:10:20;4.47;;;1.38;;
25359;SDS011;13311;51.386;0.016;2024-02-14T06:15:21;3.08;;;1.52;;
25359;SDS011;13311;51.386;0.016;2024-02-14T06:20:21;3.55;;;1.10;;
25359;SDS011;13311;51.386;0.016;2024-02-14T06:25:22;3.63;;;1.00;;
25359;SDS011;13311;51.386;0.016;2024-02-14T06:30:23;3.55;;;1.42;;
25359;SDS011;13311;51.386;0.016;2024-02-14T06:35:24;1.52;;;0.90;;
25359;SDS011;13311;51.386;0.016;2024-02-14T06:40:25;1.23;;;0.50;;
25359;SDS011;13311;51.386;0.016;2024-02-14T06:45:27;0.75;;;0.43;;
25359;SDS011;13311;51.386;0.016;2024-02-14T06:50:29;1.65;;;0.50;;
25359;SDS011;13311;51.386;0.016;2024-02-14T06:55:29;1.30;;;0.65;;
25359;SDS011;13311;51.386;0.016;2024-02-14T07:00:33;0.40;;;0.30;;
25359;SDS011;13311;51.386;0.016;2024-02-14T07:05:34;2.92;;;0.57;;
25359;SDS011;13311;51.386;0.016;2024-02-14T07:10:34;1.50;;;0.57;;
25359;SDS011;13311;51.386;0.016;2024-02-14T07:15:35;0.55;;;0.30;;
25359;SDS011;13311;51.386;0.016;2024-02-14T07:20:36;0.50;;;0.50;;
25359;SDS011;13311;51.386;0.016;2024-02-14T07:25:37;0.73;;;0.30;;
25359;SDS011;13311;51.386;0.016;2024-02-14T07:30:37;1.10;;;0.30;;
25359;SDS011;13311;51.386;0.016;2024-02-14T07:35:38;0.85;;;0.32;;
25359;SDS011;13311;51.386;0.016;2024-02-14T07:40:39;1.00;;;0.30;;
25359;SDS011;13311;51.386;0.016;2024-02-14T07:45:41;1.27;;;0.30;;
25359;SDS011;13311;51.386;0.016;2024-02-14T07:50:42;0.70;;;0.47;;
25359;SDS011;13311;51.386;0.016;2024-02-14T07:55:43;1.17;;;0.40;;
25359;SDS011;13311;51.386;0.016;2024-02-14T08:00:43;0.65;;;0.35;;
25359;SDS011;13311;51.386;0.016;2024-02-14T08:05:44;1.48;;;0.43;;
25359;SDS011;13311;51.386;0.016;2024-02-14T08:10:45;1.27;;;0.38;;
25359;SDS011;13311;51.386;0.016;2024-02-14T08:15:46;1.88;;;0.40;;
25359;SDS011;13311;51.386;0.016;2024-02-14T08:20:46;1.75;;;0.52;;
25359;SDS011;13311;51.386;0.016;2024-02-14T08:25:47;0.43;;;0.40;;
25359;SDS011;13311;51.386;0.016;2024-02-14T08:30:48;1.55;;;0.43;;
25359;SDS011;13311;51.386;0.016;2024-02-14T08:35:49;0.73;;;0.38;;
25359;SDS011;13311;51.386;0.016;2024-02-14T08:40:50;2.22;;;0.68;;
25359;SDS011;13311;51.386;0.016;2024-02-14T08:45:51;0.45;;;0.40;;
25359;SDS011;13311;51.386;0.016;2024-02-14T08:50:52;1.30;;;0.60;;
25359;SDS011;13311;51.386;0.016;2024-02-14T08:55:53;1.67;;;0.63;;
25359;SDS011;13311;51.386;0.016;2024-02-14T09:00:54;1.50;;;0.40;;
25359;SDS011;13311;51.386;0.016;2024-02-14T09:05:54;1.10;;;0.50;;
25359;SDS011;13311;51.386;0.016;2024-02-14T09:10:57;2.33;;;0.60;;
25359;SDS011;13311;51.386;0.016;2024-02-14T09:15:59;2.00;;;0.40;;
25359;SDS011;13311;51.386;0.016;2024-02-14T09:21:00;0.38;;;0.20;;
25359;SDS011;13311;51.386;0.016;2024-02-14T09:26:01;0.60;;;0.20;;
25359;SDS011;13311;51.386;0.016;2024-02-14T09:31:02;0.80;;;0.52;;
25359;SDS011;13311;51.386;0.016;2024-02-14T09:36:04;0.57;;;0.20;;
25359;SDS011;13311;51.386;0.016;2024-02-14T09:41:11;1.08;;;0.32;;
25359;SDS011;13311;51.386;0.016;2024-02-14T09:46:26;0.90;;;0.30;;
25359;SDS011;13311;51.386;0.016;2024-02-14T09:51:28;0.35;;;0.32;;
25359;SDS011;13311;51.386;0.016;2024-02-14T09:56:29;0.40;;;0.10;;
25359;SDS011;13311;51.386;0.016;2024-02-14T10:01:32;0.00;;;0.00;;
25359;SDS011;13311;51.386;0.016;2024-02-14T10:06:32;1.00;;;0.30;;
25359;SDS011;13311;51.386;0.016;2024-02-14T10:11:34;0.85;;;0.30;;
25359;SDS011;13311;51.386;0.016;2024-02-14T10:16:36;1.55;;;0.40;;
25359;SDS011;13311;51.386;0.016;2024-02-14T10:21:37;1.00;;;0.30;;
25359;SDS011;13311;51.386;0.016;2024-02-14T10:26:38;0.43;;;0.15;;
25359;SDS011;13311;51.386;0.016;2024-02-14T10:31:40;0.98;;;0.40;;
25359;SDS011;13311;51.386;0.016;2024-02-14T10:36:41;0.10;;;0.10;;
25359;SDS011;13311;51.386;0.016;2024-02-14T10:41:43;2.35;;;0.10;;
25359;SDS011;13311;51.386;0.016;2024-02-14T10:46:44;0.63;;;0.20;;
25359;SDS011;13311;51.386;0.016;2024-02-14T10:51:49;0.68;;;0.30;;
25359;SDS011;13311;51.386;0.016;2024-02-14T10:56:53;1.70;;;0.50;;
25359;SDS011;13311;51.386;0.016;2024-02-14T11:01:56;0.77;;;0.40;;
25359;SDS011;13311;51.386;0.016;2024-02-14T11:06:58;0.25;;;0.20;;
25359;SDS011;13311;51.386;0.016;2024-02-14T11:12:02;0.43;;;0.25;;
25359;SDS011;13311;51.386;0.016;2024-02-14T11:17:09;1.80;;;0.38;;
25359;SDS011;13311;51.386;0.016;2024-02-14T11:22:17;1.88;;;0.47;;
25359;SDS011;13311;51.386;0.016;2024-02-14T11:27:19;1.50;;;0.40;;
25359;SDS011;13311;51.386;0.016;2024-02-14T11:32:22;2.60;;;0.52;;
25359;SDS011;13311;51.386;0.016;2024-02-14T11:37:28;1.83;;;0.70;;
25359;SDS011;13311;51.386;0.016;2024-02-14T11:42:30;2.45;;;0.70;;
25359;SDS011;13311;51.386;0.016;2024-02-14T11:47:31;1.98;;;0.70;;
25359;SDS011;13311;51.386;0.016;2024-02-14T11:52:32;1.17;;;0.70;;
25359;SDS011;13311;51.386;0.016;2024-02-14T11:57:33;2.30;;;0.75;;
25359;SDS011;13311;51.386;0.016;2024-02-14T12:02:38;4.03;;;0.65;;
25359;SDS011;13311;51.386;0.016;2024-02-14T12:07:39;1.92;;;0.90;;
25359;SDS011;13311;51.386;0.016;2024-02-14T12:12:39;3.38;;;0.77;;
25359;SDS011;13311;51.386;0.016;2024-02-14T12:17:40;2.38;;;0.80;;
25359;SDS011;13311;51.386;0.016;2024-02-14T12:22:42;1.75;;;0.77;;
25359;SDS011;13311;51.386;0.016;2024-02-14T12:27:51;0.93;;;0.63;;
25359;SDS011;13311;51.386;0.016;2024-02-14T12:32:59;4.57;;;0.98;;
25359;SDS011;13311;51.386;0.016;2024-02-14T12:38:01;3.50;;;0.90;;
25359;SDS011;13311;51.386;0.016;2024-02-14T12:43:02;2.10;;;1.10;;
25359;SDS011;13311;51.386;0.016;2024-02-14T12:48:03;5.32;;;1.00;;
25359;SDS011;13311;51.386;0.016;2024-02-14T12:53:08;2.47;;;0.90;;
25359;SDS011;13311;51.386;0.016;2024-02-14T12:58:10;2.50;;;1.13;;
25359;SDS011;13311;51.386;0.016;2024-02-14T13:03:11;2.47;;;1.50;;
25359;SDS011;13311;51.386;0.016;2024-02-14T13:08:12;1.95;;;0.93;;
25359;SDS011;13311;51.386;0.016;2024-02-14T13:13:13;1.92;;;0.82;;
25359;SDS011;13311;51.386;0.016;2024-02-14T13:18:14;1.10;;;1.00;;
25359;SDS011;13311;51.386;0.016;2024-02-14T13:23:15;1.95;;;1.10;;
25359;SDS011;13311;51.386;0.016;2024-02-14T13:28:16;2.38;;;0.80;;
25359;SDS011;13311;51.386;0.016;2024-02-14T13:33:17;2.05;;;0.80;;
25359;SDS011;13311;51.386;0.016;2024-02-14T13:38:18;1.83;;;0.95;;
25359;SDS011;13311;51.386;0.016;2024-02-14T13:43:19;4.10;;;1.27;;
25359;SDS011;13311;51.386;0.016;2024-02-14T13:48:19;1.75;;;0.90;;
25359;SDS011;13311;51.386;0.016;2024-02-14T13:53:20;2.22;;;0.75;;
25359;SDS011;13311;51.386;0.016;2024-02-14T13:58:22;0.73;;;0.47;;
25359;SDS011;13311;51.386;0.016;2024-02-14T14:03:23;2.53;;;0.80;;
25359;SDS011;13311;51.386;0.016;2024-02-14T14:08:24;2.47;;;0.95;;
25359;SDS011;13311;51.386;0.016;2024-02-14T14:13:25;1.02;;;0.47;;
25359;SDS011;13311;51.386;0.016;2024-02-14T14:18:29;1.05;;;0.60;;
25359;SDS011;13311;51.386;0.016;2024-02-14T14:23:29;1.40;;;0.70;;
25359;SDS011;13311;51.386;0.016;2024-02-14T14:28:30;1.88;;;0.57;;
25359;SDS011;13311;51.386;0.016;2024-02-14T14:33:32;2.00;;;0.60;;
25359;SDS011;13311;51.386;0.016;2024-02-14T14:38:32;5.72;;;0.85;;
25359;SDS011;13311;51.386;0.016;2024-02-14T14:43:33;2.17;;;0.90;;
25359;SDS011;13311;51.386;0.016;2024-02-14T14:48:34;2.63;;;0.70;;
25359;SDS011;13311;51.386;0.016;2024-02-14T14:53:35;3.00;;;0.80;;
25359;SDS011;13311;51.386;0.016;2024-02-14T14:58:36;1.25;;;1.10;;
25359;SDS011;13311;51.386;0.016;2024-02-14T15:03:36;2.80;;;1.50;;
25359;SDS011;13311;51.386;0.016;2024-02-14T15:08:37;1.80;;;1.27;;
25359;SDS011;13311;51.386;0.016;2024-02-14T15:13:39;3.40;;;1.73;;
25359;SDS011;13311;51.386;0.016;2024-02-14T15:18:39;3.50;;;1.45;;
25359;SDS011;13311;51.386;0.016;2024-02-14T15:23:43;4.35;;;1.27;;
25359;SDS011;13311;51.386;0.016;2024-02-14T15:28:44;4.00;;;1.33;;
25359;SDS011;13311;51.386;0.016;2024-02-14T15:33:45;3.58;;;0.80;;
25359;SDS011;13311;51.386;0.016;2024-02-14T15:38:46;6.07;;;1.27;;
25359;SDS011;13311;51.386;0.016;2024-02-14T15:43:48;3.22;;;1.27;;
25359;SDS011;13311;51.386;0.016;2024-02-14T15:48:49;3.53;;;1.38;;
25359;SDS011;13311;51.386;0.016;2024-02-14T15:53:49;3.28;;;1.20;;
25359;SDS011;13311;51.386;0.016;2024-02-14T15:58:50;4.20;;;1.10;;
25359;SDS011;13311;51.386;0.016;2024-02-14T16:03:51;1.83;;;1.10;;
25359;SDS011;13311;51.386;0.016;2024-02-14T16:08:52;4.25;;;1.35;;
25359;SDS011;13311;51.386;0.016;2024-02-14T16:13:53;5.90;;;1.40;;
25359;SDS011;13311;51.386;0.016;2024-02-14T16:18:54;3.13;;;1.50;;
25359;SDS011;13311;51.386;0.016;2024-02-14T16:23:54;5.65;;;1.90;;
25359;SDS011;13311;51.386;0.016;2024-02-14T16:28:55;5.43;;;1.92;;
25359;SDS011;13311;51.386;0.016;2024-02-14T16:33:56;5.95;;;2.08;;
25359;SDS011;13311;51.386;0.016;2024-02-14T16:38:56;6.50;;;1.38;;
25359;SDS011;13311;51.386;0.016;2024-02-14T16:43:57;6.38;;;1.98;;
25359;SDS011;13311;51.386;0.016;2024-02-14T16:48:58;4.78;;;1.63;;
25359;SDS011;13311;51.386;0.016;2024-02-14T16:53:59;4.85;;;1.23;;
25359;SDS011;13311;51.386;0.016;2024-02-14T16:58:59;5.28;;;1.50;;
25359;SDS011;13311;51.386;0.016;2024-02-14T17:04:00;2.85;;;1.08;;
25359;SDS011;13311;51.386;0.016;2024-02-14T17:09:01;4.82;;;1.30;;
25359;SDS011;13311;51.386;0.016;2024-02-14T17:14:03;4.22;;;1.40;;
25359;SDS011;13311;51.386;0.016;2024-02-14T17:19:07;4.18;;;1.30;;
25359;SDS011;13311;51.386;0.016;2024-02-14T17:24:09;3.60;;;1.17;;
25359;SDS011;13311;51.386;0.016;2024-02-14T17:29:10;2.70;;;0.95;;
25359;SDS011;13311;51.386;0.016;2024-02-14T17:34:11;4.20;;;0.95;;
25359;SDS011;13311;51.386;0.016;2024-02-14T17:39:12;1.88;;;0.95;;
25359;SDS011;13311;51.386;0.016;2024-02-14T17:44:12;3.47;;;0.93;;
25359;SDS011;13311;51.386;0.016;2024-02-14T17:49:13;3.83;;;0.80;;
25359;SDS011;13311;51.386;0.016;2024-02-14T17:54:16;1.33;;;0.80;;
25359;SDS011;13311;51.386;0.016;2024-02-14T17:59:17;2.17;;;0.98;;
25359;SDS011;13311;51.386;0.016;2024-02-14T18:04:18;2.97;;;1.10;;
25359;SDS011;13311;51.386;0.016;2024-02-14T18:09:19;2.75;;;1.13;;
25359;SDS011;13311;51.386;0.016;2024-02-14T18:14:20;2.72;;;1.20;;
25359;SDS011;13311;51.386;0.016;2024-02-14T18:19:21;0.95;;;0.80;;
25359;SDS011;13311;51.386;0.016;2024-02-14T18:24:21;1.95;;;1.10;;
25359;SDS011;13311;51.386;0.016;2024-02-14T18:29:23;1.25;;;0.70;;
25359;SDS011;13311;51.386;0.016;2024-02-14T18:34:23;2.25;;;1.10;;
25359;SDS011;13311;51.386;0.016;2024-02-14T18:39:24;4.53;;;1.35;;
25359;SDS011;13311;51.386;0.016;2024-02-14T18:44:25;2.17;;;1.15;;
25359;SDS011;13311;51.386;0.016;2024-02-14T18:49:26;3.70;;;1.30;;
25359;SDS011;13311;51.386;0.016;2024-02-14T18:54:26;5.38;;;1.33;;
25359;SDS011;13311;51.386;0.016;2024-02-14T18:59:27;3.90;;;1.35;;
25359;SDS011;13311;51.386;0.016;2024-02-14T19:04:28;6.85;;;1.60;;
25359;SDS011;13311;51.386;0.016;2024-02-14T19:09:28;7.20;;;1.92;;
25359;SDS011;13311;51.386;0.016;2024-02-14T19:14:31;8.30;;;2.17;;
25359;SDS011;13311;51.386;0.016;2024-02-14T19:19:33;8.82;;;3.45;;
25359;SDS011;13311;51.386;0.016;2024-02-14T19:24:36;11.13;;;2.83;;
25359;SDS011;13311;51.386;0.016;2024-02-14T19:29:39;10.43;;;3.47;;
25359;SDS011;13311;51.386;0.016;2024-02-14T19:34:40;13.38;;;3.28;;
25359;SDS011;13311;51.386;0.016;2024-02-14T19:39:40;11.52;;;2.53;;
25359;SDS011;13311;51.386;0.016;2024-02-14T19:44:41;12.75;;;3.00;;
25359;SDS011;13311;51.386;0.016;2024-02-14T19:49:42;14.55;;;4.05;;
25359;SDS011;13311;51.386;0.016;2024-02-14T19:54:43;10.38;;;2.75;;
25359;SDS011;13311;51.386;0.016;2024-02-14T19:59:43;10.45;;;3.42;;
25359;SDS011;13311;51.386;0.016;2024-02-14T20:04:44;14.90;;;4.45;;
25359;SDS011;13311;51.386;0.016;2024-02-14T20:09:45;12.18;;;3.20;;
25359;SDS011;13311;51.386;0.016;2024-02-14T20:14:46;19.00;;;3.90;;
25359;SDS011;13311;51.386;0.016;2024-02-14T20:19:46;17.70;;;3.95;;
25359;SDS011;13311;51.386;0.016;2024-02-14T20:24:47;10.05;;;3.45;;
25359;SDS011;13311;51.386;0.016;2024-02-14T20:29:48;14.25;;;4.40;;
25359;SDS011;13311;51.386;0.016;2024-02-14T20:34:48;16.63;;;4.40;;
25359;SDS011;13311;51.386;0.016;2024-02-14T20:39:49;22.80;;;4.38;;
25359;SDS011;13311;51.386;0.016;2024-02-14T20:44:50;19.20;;;5.55;;
25359;SDS011;13311;51.386;0.016;2024-02-14T20:49:51;19.23;;;6.55;;
25359;SDS011;13311;51.386;0.016;2024-02-14T20:54:55;15.73;;;6.25;;
25359;SDS011;13311;51.386;0.016;2024-02-14T20:59:56;22.75;;;5.40;;
25359;SDS011;13311;51.386;0.016;2024-02-14T21:04:57;17.83;;;5.70;;
25359;SDS011;13311;51.386;0.016;2024-02-14T21:09:57;20.02;;;5.60;;
25359;SDS011;13311;51.386;0.016;2024-02-14T21:14:58;17.98;;;4.95;;
25359;SDS011;13311;51.386;0.016;2024-02-14T21:19:59;17.38;;;5.43;;
25359;SDS011;13311;51.386;0.016;2024-02-14T21:24:59;21.67;;;5.93;;
25359;SDS011;13311;51.386;0.016;2024-02-14T21:30:00;13.02;;;4.78;;
25359;SDS011;13311;51.386;0.016;2024-02-14T21:35:01;13.38;;;4.78;;
25359;SDS011;13311;51.386;0.016;2024-02-14T21:40:03;15.10;;;3.58;;
25359;SDS011;13311;51.386;0.016;2024-02-14T21:45:05;19.13;;;3.70;;
25359;SDS011;13311;51.386;0.016;2024-02-14T21:50:06;12.23;;;3.33;;
25359;SDS011;13311;51.386;0.016;2024-02-14T21:55:08;11.95;;;3.28;;
25359;SDS011;13311;51.386;0.016;2024-02-14T22:00:09;5.54;;;2.76;;
25359;SDS011;13311;51.386;0.016;2024-02-14T22:05:12;7.57;;;2.78;;
25359;SDS011;13311;51.386;0.016;2024-02-14T22:10:13;9.43;;;2.22;;
25359;SDS011;13311;51.386;0.016;2024-02-14T22:15:14;5.55;;;2.25;;
25359;SDS011;13311;51.386;0.016;2024-02-14T22:20:15;10.07;;;2.95;;
25359;SDS011;13311;51.386;0.016;2024-02-14T22:25:18;4.95;;;1.30;;
25359;SDS011;13311;51.386;0.016;2024-02-14T22:30:19;3.10;;;1.50;;
25359;SDS011;13311;51.386;0.016;2024-02-14T22:35:20;1.95;;;0.98;;
25359;SDS011;13311;51.386;0.016;2024-02-14T22:40:21;2.88;;;1.05;;
25359;SDS011;13311;51.386;0.016;2024-02-14T22:45:21;1.65;;;0.80;;
25359;SDS011;13311;51.386;0.016;2024-02-14T22:50:23;3.47;;;0.73;;
25359;SDS011;13311;51.386;0.016;2024-02-14T22:55:24;1.08;;;0.52;;
25359;SDS011;13311;51.386;0.016;2024-02-14T23:00:24;3.17;;;0.90;;
25359;SDS011;13311;51.386;0.016;2024-02-14T23:05:26;1.27;;;0.90;;
25359;SDS011;13311;51.386;0.016;2024-02-14T23:10:27;1.90;;;0.80;;
25359;SDS011;13311;51.386;0.016;2024-02-14T23:15:28;0.80;;;0.80;;
25359;SDS011;13311;51.386;0.016;2024-02-14T23:20:29;1.25;;;0.68;;
25359;SDS011;13311;51.386;0.016;2024-02-14T23:25:31;1.83;;;0.98;;
25359;SDS011;13311;51.386;0.016;2024-02-14T23:30:32;2.67;;;0.80;;
25359;SDS011;13311;51.386;0.016;2024-02-14T23:35:34;1.95;;;0.80;;
25359;SDS011;13311;51.386;0.016;2024-02-14T23:40:35;2.15;;;1.00;;
25359;SDS011;13311;51.386;0.016;2024-02-14T23:45:36;2.15;;;0.90;;
25359;SDS011;13311;51.386;0.016;2024-02-14T23:50:37;1.48;;;1.05;;
25359;SDS011;13311;51.386;0.016;2024-02-14T23:55:37;5.72;;;1.65;;
